Time;durP1;ratioP1;P1;durP2;ratioP2;P2;SDS_P1;SDS_P2;PMS_P1;PMS_P2;Temp;Humidity;BMP_temperature;BMP_pressure;BME280_temperature;BME280_humidity;BME280_pressure;Samples;Min_cycle;Max_cycle;Signal;HPM_P1;HPM_P2
2023/03/03 00:00:25;;;;;;;51.90;31.90;;;;;;;7.88;74.07;101299.91;4939928;28;20552;-79
2023/03/03 00:03:09;;;;;;;52.25;33.65;;;;;;;8.08;74.31;101347.97;4954337;28;20290;-77
2023/03/03 00:05:52;;;;;;;48.17;30.33;;;;;;;8.09;74.74;101349.69;4956921;28;20108;-80
2023/03/03 00:08:46;;;;;;;46.35;31.35;;;;;;;8.02;74.79;101337.81;4953388;28;20269;-77
2023/03/03 00:11:33;;;;;;;49.03;31.25;;;;;;;8.08;74.09;101327.69;4979466;28;20042;-79
2023/03/03 00:14:22;;;;;;;49.55;31.58;;;;;;;7.92;74.13;101311.97;4961044;28;20064;-78
2023/03/03 00:16:53;;;;;;;51.92;33.05;;;;;;;8.04;74.85;101342.03;4988452;28;20626;-78
2023/03/03 00:19:23;;;;;;;48.42;33.17;;;;;;;7.89;74.06;101290.19;4972314;28;20080;-79
2023/03/03 00:22:13;;;;;;;48.33;32.85;;;;;;;8.16;74.43;101337.75;4948884;28;20781;-78
2023/03/03 00:25:22;;;;;;;53.00;32.70;;;;;;;8.17;74.03;101336.78;4934621;28;20085;-81
2023/03/03 00:27:53;;;;;;;53.95;32.85;;;;;;;8.26;74.19;101335.31;4916586;28;20780;-79
2023/03/03 00:30:29;;;;;;;49.65;32.58;;;;;;;8.16;74.85;101340.38;4937249;28;20332;-78
2023/03/03 00:32:59;;;;;;;52.63;33.30;;;;;;;8.13;74.40;101332.63;4941281;28;20232;-78
2023/03/03 00:35:37;;;;;;;53.97;34.10;;;;;;;8.01;74.46;101309.66;4932400;28;20058;-77
2023/03/03 00:38:18;;;;;;;48.78;32.80;;;;;;;8.11;73.97;101318.69;4947782;28;20050;-75
2023/03/03 00:40:46;;;;;;;54.70;33.10;;;;;;;7.72;74.24;101267.53;4943970;28;20308;-76
2023/03/03 00:43:33;;;;;;;50.38;32.40;;;;;;;8.13;74.37;101335.28;4952496;28;20132;-77
2023/03/03 00:46:23;;;;;;;54.25;33.35;;;;;;;8.10;74.71;101336.34;4956673;28;20046;-78
2023/03/03 00:49:18;;;;;;;48.38;31.33;;;;;;;7.99;74.89;101315.06;4933462;28;20061;-80
2023/03/03 00:51:48;;;;;;;51.47;30.80;;;;;;;7.93;74.65;101307.53;4939140;28;20078;-77
2023/03/03 00:54:23;;;;;;;51.88;32.65;;;;;;;7.98;74.85;101325.72;4933341;28;20399;-77
2023/03/03 00:56:53;;;;;;;45.90;31.23;;;;;;;8.04;75.27;101331.47;4934978;28;20117;-79
2023/03/03 00:59:33;;;;;;;48.55;30.88;;;;;;;8.08;75.27;101326.81;4925310;28;20125;-77
2023/03/03 01:02:10;;;;;;;46.78;31.13;;;;;;;7.92;74.86;101301.41;4960001;28;20057;-78
2023/03/03 01:04:57;;;;;;;43.92;30.02;;;;;;;8.07;75.25;101310.09;4982727;28;20132;-76
2023/03/03 01:07:24;;;;;;;45.72;28.38;;;;;;;8.09;74.66;101313.50;4956046;28;20499;-78
2023/03/03 01:10:14;;;;;;;51.92;31.50;;;;;;;8.10;74.67;101320.47;4944709;28;20053;-76
2023/03/03 01:12:50;;;;;;;48.67;31.98;;;;;;;8.01;74.78;101315.81;4964180;28;20425;-77
2023/03/03 01:15:24;;;;;;;47.58;32.38;;;;;;;8.06;74.75;101318.16;4969459;28;20041;-77
2023/03/03 01:18:00;;;;;;;47.40;30.50;;;;;;;7.72;75.26;101280.75;4937159;28;20389;-77
2023/03/03 01:20:41;;;;;;;44.28;29.42;;;;;;;7.98;75.25;101320.44;4934753;28;20085;-78
2023/03/03 01:23:14;;;;;;;50.60;30.58;;;;;;;8.01;75.04;101314.94;4953353;28;20061;-78
2023/03/03 01:25:43;;;;;;;47.58;30.67;;;;;;;7.88;74.95;101302.53;4960458;28;20057;-78
2023/03/03 01:28:10;;;;;;;46.72;30.15;;;;;;;7.81;75.27;101282.75;4966318;28;20267;-77
2023/03/03 01:30:37;;;;;;;53.88;30.27;;;;;;;7.79;75.10;101276.75;4978679;28;20049;-78
2023/03/03 01:33:08;;;;;;;51.03;31.83;;;;;;;7.79;75.37;101279.38;4983997;28;20640;-78
2023/03/03 01:35:44;;;;;;;51.25;29.30;;;;;;;7.89;75.27;101295.47;4981338;28;20060;-78
2023/03/03 01:38:14;;;;;;;51.47;31.23;;;;;;;7.90;75.53;101298.00;4979694;28;20439;-78
2023/03/03 01:40:42;;;;;;;49.83;31.52;;;;;;;7.83;75.82;101290.59;4978114;28;20068;-79
2023/03/03 01:43:17;;;;;;;46.50;29.98;;;;;;;7.82;76.10;101289.75;4987263;28;20388;-76
2023/03/03 01:46:06;;;;;;;46.13;31.02;;;;;;;7.89;75.62;101292.84;4977631;28;20118;-78
2023/03/03 01:48:42;;;;;;;46.08;31.25;;;;;;;7.89;75.73;101285.75;4956206;28;20052;-77
2023/03/03 01:51:29;;;;;;;47.00;30.38;;;;;;;7.91;75.01;101291.78;4998737;28;20053;-79
2023/03/03 01:54:17;;;;;;;46.90;30.02;;;;;;;7.71;75.78;101255.25;4950563;28;20367;-78
2023/03/03 01:56:54;;;;;;;48.53;30.92;;;;;;;7.88;75.41;101278.75;4926562;28;20057;-78
2023/03/03 01:59:38;;;;;;;45.00;28.55;;;;;;;7.73;75.72;101256.00;4937228;28;20150;-78
2023/03/03 02:02:08;;;;;;;47.30;30.95;;;;;;;7.34;75.51;101188.16;4953137;28;20061;-79
2023/03/03 02:04:35;;;;;;;47.63;30.90;;;;;;;7.80;75.62;101270.50;4981959;28;20057;-79
2023/03/03 02:07:10;;;;;;;47.85;31.58;;;;;;;7.87;75.71;101277.06;4979048;28;20056;-78
2023/03/03 02:09:55;;;;;;;49.78;31.33;;;;;;;7.40;75.88;101193.88;4985004;28;20285;-76
2023/03/03 02:12:32;;;;;;;49.95;30.85;;;;;;;7.88;75.80;101262.88;4977491;28;20360;-78
2023/03/03 02:14:59;;;;;;;49.95;31.42;;;;;;;7.92;75.58;101260.91;4948701;28;20645;-78
2023/03/03 02:17:25;;;;;;;45.15;30.42;;;;;;;7.97;75.76;101266.72;4963756;28;20384;-77
2023/03/03 02:20:16;;;;;;;49.97;31.02;;;;;;;8.00;75.67;101255.09;4971377;28;20060;-79
2023/03/03 02:23:00;;;;;;;54.80;33.47;;;;;;;7.91;75.07;101238.91;4968144;28;20637;-78
2023/03/03 02:25:56;;;;;;;48.25;30.70;;;;;;;7.97;75.25;101255.31;4991875;28;20123;-78
2023/03/03 02:28:34;;;;;;;42.30;28.55;;;;;;;7.97;75.04;101253.50;4995161;28;20061;-78
2023/03/03 02:31:07;;;;;;;48.25;30.88;;;;;;;7.95;75.49;101252.75;5000955;28;20224;-77
2023/03/03 02:33:50;;;;;;;48.67;30.30;;;;;;;7.57;75.84;101186.59;4963979;28;20351;-79
2023/03/03 02:36:34;;;;;;;46.95;30.05;;;;;;;7.92;75.80;101247.69;4945220;28;20914;-78
2023/03/03 02:39:08;;;;;;;42.53;29.08;;;;;;;7.63;75.49;101189.69;4953794;28;20223;-78
2023/03/03 02:42:20;;;;;;;48.85;31.33;;;;;;;7.92;76.31;101245.88;4975182;28;20272;-77
2023/03/03 02:45:01;;;;;;;44.80;29.92;;;;;;;7.92;75.70;101237.94;4965135;28;20130;-77
2023/03/03 02:47:34;;;;;;;48.33;30.05;;;;;;;7.97;75.73;101244.72;4959605;28;20400;-78
2023/03/03 02:50:19;;;;;;;48.28;29.10;;;;;;;7.99;75.60;101237.53;4936838;28;20389;-78
2023/03/03 02:52:55;;;;;;;44.30;30.00;;;;;;;8.00;75.25;101236.59;4981656;28;20375;-80
2023/03/03 02:55:21;;;;;;;42.30;28.95;;;;;;;8.01;75.04;101243.56;4964020;28;20152;-79
2023/03/03 02:58:04;;;;;;;50.00;31.92;;;;;;;8.01;75.86;101240.91;4932172;28;20432;-79
2023/03/03 03:00:41;;;;;;;47.80;30.20;;;;;;;7.89;74.72;101214.38;4966339;28;20049;-76
2023/03/03 03:03:13;;;;;;;48.90;30.77;;;;;;;7.55;75.82;101164.72;4966984;28;20716;-78
2023/03/03 03:05:52;;;;;;;50.60;30.73;;;;;;;7.65;75.56;101187.78;4969576;28;20050;-79
2023/03/03 03:08:24;;;;;;;45.03;29.95;;;;;;;7.99;75.76;101241.03;4956463;28;20053;-78
2023/03/03 03:10:57;;;;;;;46.83;31.10;;;;;;;7.99;75.71;101226.97;4965831;28;20698;-78
2023/03/03 03:13:29;;;;;;;43.80;29.55;;;;;;;8.04;75.50;101236.28;4976247;28;20060;-75
2023/03/03 03:15:56;;;;;;;41.33;27.98;;;;;;;8.03;75.91;101223.97;4998838;28;20052;-78
2023/03/03 03:18:26;;;;;;;43.05;28.73;;;;;;;8.07;75.30;101214.91;4965115;28;20458;-79
2023/03/03 03:20:53;;;;;;;48.53;29.27;;;;;;;8.03;74.98;101208.13;4979843;28;20041;-78
2023/03/03 03:23:49;;;;;;;41.22;28.00;;;;;;;7.65;74.96;101149.97;4982188;28;20055;-79
2023/03/03 03:26:23;;;;;;;45.78;29.58;;;;;;;7.92;74.97;101206.22;5009216;28;20793;-79
2023/03/03 03:28:55;;;;;;;47.53;29.00;;;;;;;8.08;75.14;101226.31;4951441;28;20106;-80
2023/03/03 03:31:31;;;;;;;45.55;29.35;;;;;;;8.08;74.53;101215.75;4963267;28;20053;-79
2023/03/03 03:34:03;;;;;;;47.45;29.60;;;;;;;8.09;74.42;101222.75;4989225;28;20406;-78
2023/03/03 03:36:38;;;;;;;39.80;27.25;;;;;;;7.97;75.02;101213.84;4985118;28;20048;-78
2023/03/03 03:39:11;;;;;;;42.80;28.65;;;;;;;8.07;75.01;101225.47;4997153;28;20135;-78
2023/03/03 03:41:38;;;;;;;42.78;27.30;;;;;;;8.11;74.86;101242.84;5001771;28;20049;-80
2023/03/03 03:44:04;;;;;;;43.08;29.73;;;;;;;8.05;75.08;101214.16;4970991;28;20389;-78
2023/03/03 03:46:36;;;;;;;45.40;29.27;;;;;;;8.00;74.67;101199.56;5000006;28;20085;-77
2023/03/03 03:49:03;;;;;;;44.50;29.15;;;;;;;8.20;74.12;101229.91;4924439;28;20105;-79
2023/03/03 03:51:34;;;;;;;43.05;28.63;;;;;;;8.19;74.03;101229.09;4985356;28;20150;-79
2023/03/03 03:54:09;;;;;;;41.47;27.33;;;;;;;8.11;73.83;101210.25;4997863;28;20444;-77
2023/03/03 03:56:36;;;;;;;41.15;27.25;;;;;;;8.12;74.24;101214.59;4985851;28;20484;-79
2023/03/03 03:59:05;;;;;;;42.30;27.27;;;;;;;8.04;73.69;101206.34;4981114;28;20046;-78
2023/03/03 04:01:32;;;;;;;37.72;26.42;;;;;;;7.91;73.54;101183.38;5004029;28;20080;-78
2023/03/03 04:04:05;;;;;;;41.25;26.60;;;;;;;8.06;74.36;101222.97;4967567;28;20049;-77
2023/03/03 04:06:39;;;;;;;42.83;25.35;;;;;;;7.96;73.97;101200.72;4980476;28;20045;-79
2023/03/03 04:09:11;;;;;;;39.03;25.63;;;;;;;8.01;74.32;101209.19;4943523;28;20159;-80
2023/03/03 04:11:44;;;;;;;43.10;26.50;;;;;;;7.90;74.13;101197.53;4971305;28;20055;-77
2023/03/03 04:14:11;;;;;;;38.83;26.20;;;;;;;7.71;74.42;101154.81;5012826;28;20496;-79
2023/03/03 04:16:37;;;;;;;37.40;23.85;;;;;;;7.48;74.61;101112.31;4996395;28;20060;-78
2023/03/03 04:19:05;;;;;;;42.55;27.08;;;;;;;8.01;73.84;101204.75;4955892;28;20305;-78
2023/03/03 04:21:33;;;;;;;42.50;25.05;;;;;;;7.87;73.69;101187.19;4982061;28;20055;-78
2023/03/03 04:23:59;;;;;;;39.28;26.80;;;;;;;8.00;73.78;101212.78;4991581;28;20102;-79
2023/03/03 04:26:39;;;;;;;37.42;24.92;;;;;;;7.88;73.77;101204.72;4984915;28;20146;-77
2023/03/03 04:29:08;;;;;;;38.25;24.08;;;;;;;7.65;74.05;101177.22;4987271;28;20049;-76
2023/03/03 04:31:36;;;;;;;46.33;25.58;;;;;;;7.85;74.43;101206.75;4976559;28;20045;-78
2023/03/03 04:34:12;;;;;;;34.05;21.75;;;;;;;7.64;74.69;101164.94;4996378;28;20049;-79
2023/03/03 04:36:41;;;;;;;42.55;24.63;;;;;;;7.88;74.18;101195.97;4991792;28;20298;-79
2023/03/03 04:39:16;;;;;;;37.53;22.95;;;;;;;7.91;73.83;101215.13;4992954;28;20433;-77
2023/03/03 04:41:48;;;;;;;37.20;24.17;;;;;;;7.54;74.36;101157.75;4983954;28;20056;-78
2023/03/03 04:44:24;;;;;;;38.20;23.23;;;;;;;7.46;74.45;101161.75;4989175;28;20091;-79
2023/03/03 04:46:53;;;;;;;38.80;23.50;;;;;;;7.49;74.83;101177.41;4989383;28;20053;-79
2023/03/03 04:49:25;;;;;;;40.20;23.85;;;;;;;7.53;74.71;101191.25;5006644;28;20174;-79
2023/03/03 04:52:04;;;;;;;36.53;24.73;;;;;;;7.70;75.10;101227.13;5018262;28;20068;-79
2023/03/03 04:54:31;;;;;;;36.10;23.23;;;;;;;7.70;75.30;101217.41;4965854;28;20257;-79
2023/03/03 04:56:58;;;;;;;36.08;23.02;;;;;;;7.58;74.99;101194.44;4962422;28;20503;-78
2023/03/03 04:59:35;;;;;;;37.50;23.90;;;;;;;7.73;75.41;101226.06;4949140;28;20812;-79
2023/03/03 05:02:09;;;;;;;37.10;24.13;;;;;;;7.45;74.91;101178.56;4940381;28;20053;-79
2023/03/03 05:04:37;;;;;;;34.92;23.00;;;;;;;7.54;74.92;101205.31;4968224;28;20054;-77
2023/03/03 05:07:07;;;;;;;38.45;23.35;;;;;;;7.53;75.60;101204.47;4954085;28;20072;-77
2023/03/03 05:09:34;;;;;;;38.33;24.40;;;;;;;7.24;75.41;101156.22;4971054;28;20049;-79
2023/03/03 05:12:01;;;;;;;33.85;22.67;;;;;;;7.44;75.82;101184.78;4979107;28;20115;-78
2023/03/03 05:14:30;;;;;;;39.28;24.42;;;;;;;7.38;75.42;101176.41;4976651;28;20049;-78
2023/03/03 05:16:57;;;;;;;35.45;23.30;;;;;;;7.12;75.29;101135.91;4981155;28;20064;-77
2023/03/03 05:19:29;;;;;;;36.97;23.75;;;;;;;7.58;75.12;101207.66;5015313;28;20048;-79
2023/03/03 05:22:04;;;;;;;38.50;23.40;;;;;;;7.34;75.13;101167.84;5001771;28;20495;-79
2023/03/03 05:24:58;;;;;;;36.38;22.88;;;;;;;7.56;75.02;101198.97;5023150;28;20048;-77
2023/03/03 05:27:31;;;;;;;37.20;24.52;;;;;;;7.43;74.74;101177.81;5003059;28;20048;-77
2023/03/03 05:29:57;;;;;;;35.17;23.70;;;;;;;7.38;75.37;101174.63;5015448;28;20507;-77
2023/03/03 05:32:36;;;;;;;40.95;26.05;;;;;;;6.61;75.28;101052.97;4995389;28;20518;-78
2023/03/03 05:35:10;;;;;;;38.35;23.90;;;;;;;7.46;75.77;101203.19;5015635;28;20073;-79
2023/03/03 05:37:43;;;;;;;39.53;25.35;;;;;;;7.47;75.31;101208.34;5001344;28;20051;-77
2023/03/03 05:40:11;;;;;;;41.35;25.02;;;;;;;7.14;75.58;101155.13;5005822;28;20483;-78
2023/03/03 05:42:41;;;;;;;41.90;25.45;;;;;;;7.45;75.64;101202.34;4983618;28;20243;-79
2023/03/03 05:45:14;;;;;;;41.15;25.25;;;;;;;7.44;75.53;101194.50;5001041;28;20067;-78
2023/03/03 05:47:52;;;;;;;41.35;25.88;;;;;;;7.45;75.72;101204.13;5003181;28;20103;-78
2023/03/03 05:50:26;;;;;;;46.20;24.70;;;;;;;7.25;75.89;101179.03;4991426;28;20491;-79
2023/03/03 05:53:01;;;;;;;37.13;25.27;;;;;;;7.26;75.72;101178.94;4927674;28;20243;-78
2023/03/03 05:55:38;;;;;;;;;;;;;;;7.35;75.79;101201.22;4930834;28;20046;-78
2023/03/03 05:58:15;;;;;;;39.00;24.40;;;;;;;7.25;75.75;101187.78;4959620;28;20260;-78
2023/03/03 06:00:42;;;;;;;40.05;25.45;;;;;;;7.28;75.91;101190.25;4974916;28;20312;-77
2023/03/03 06:03:12;;;;;;;39.40;25.65;;;;;;;7.33;75.79;101203.16;4976325;28;20112;-79
2023/03/03 06:05:43;;;;;;;40.45;25.30;;;;;;;7.15;76.35;101173.50;4977688;28;20132;-79
2023/03/03 06:08:14;;;;;;;42.58;26.23;;;;;;;6.93;76.86;101146.81;4978202;28;20053;-79
2023/03/03 06:10:42;;;;;;;38.38;25.20;;;;;;;7.24;77.09;101198.47;4962281;28;20064;-77
2023/03/03 06:13:10;;;;;;;34.55;23.20;;;;;;;7.13;76.94;101177.19;5000224;28;20137;-76
2023/03/03 06:15:40;;;;;;;49.10;25.85;;;;;;;7.25;76.20;101187.78;4991074;28;20134;-79
2023/03/03 06:18:10;;;;;;;39.47;24.08;;;;;;;7.20;75.70;101171.41;4991395;28;20383;-79
2023/03/03 06:20:43;;;;;;;38.40;23.58;;;;;;;7.38;75.83;101208.97;4998552;28;20079;-80
2023/03/03 06:23:17;;;;;;;35.50;23.42;;;;;;;6.77;75.91;101110.00;4994070;28;20339;-80
2023/03/03 06:25:43;;;;;;;35.60;24.23;;;;;;;7.38;76.88;101214.25;4987474;28;20128;-77
2023/03/03 06:28:16;;;;;;;40.13;24.80;;;;;;;7.36;76.76;101212.66;4980536;28;20061;-78
2023/03/03 06:30:59;;;;;;;39.22;23.42;;;;;;;7.36;76.81;101217.94;4997133;28;20041;-78
2023/03/03 06:33:44;;;;;;;39.83;24.27;;;;;;;7.25;77.01;101192.22;5005705;28;20136;-79
2023/03/03 06:36:24;;;;;;;39.13;23.75;;;;;;;7.40;76.83;101215.00;4981733;28;20615;-79
2023/03/03 06:39:07;;;;;;;38.45;23.88;;;;;;;7.59;76.21;101219.91;4984329;28;20415;-78
2023/03/03 06:41:36;;;;;;;38.63;24.83;;;;;;;7.10;75.69;101145.72;4997333;28;20103;-77
2023/03/03 06:44:06;;;;;;;42.58;23.90;;;;;;;7.52;76.06;101218.63;4977406;28;20099;-79
2023/03/03 06:46:43;;;;;;;36.17;23.20;;;;;;;7.63;76.23;101226.69;4989252;28;20048;-80
2023/03/03 06:49:18;;;;;;;37.05;23.02;;;;;;;7.83;75.66;101235.06;4993791;28;20052;-74
2023/03/03 06:51:45;;;;;;;45.13;22.40;;;;;;;7.77;75.10;101235.47;5007308;28;20296;-75
2023/03/03 06:54:23;;;;;;;36.00;23.05;;;;;;;7.67;74.94;101228.19;4983374;28;20426;-76
2023/03/03 06:57:02;;;;;;;38.03;23.83;;;;;;;7.45;75.43;101205.00;4979601;28;20431;-79
2023/03/03 06:59:32;;;;;;;38.15;23.27;;;;;;;7.73;75.39;101248.06;4982722;28;20057;-77
2023/03/03 07:02:15;;;;;;;34.60;22.85;;;;;;;7.68;75.70;101243.06;4981391;28;20458;-78
2023/03/03 07:04:43;;;;;;;36.00;22.52;;;;;;;7.47;75.21;101212.78;4971607;28;20546;-78
2023/03/03 07:07:19;;;;;;;41.70;24.17;;;;;;;7.67;75.24;101237.88;4963615;28;20121;-80
2023/03/03 07:09:56;;;;;;;33.50;21.48;;;;;;;7.75;74.87;101240.88;4987263;28;20103;-77
2023/03/03 07:12:29;;;;;;;38.53;22.80;;;;;;;7.85;74.24;101255.16;4986966;28;20309;-76
2023/03/03 07:15:33;;;;;;;40.20;23.50;;;;;;;7.44;74.72;101194.50;5023822;28;20052;-76
2023/03/03 07:18:21;;;;;;;37.25;22.38;;;;;;;7.74;75.08;101249.75;4980292;28;20479;-78
2023/03/03 07:20:48;;;;;;;39.40;23.58;;;;;;;7.44;75.04;101187.41;4996202;28;20252;-76
2023/03/03 07:23:22;;;;;;;39.15;24.63;;;;;;;8.04;75.22;101267.16;5002285;28;20209;-76
2023/03/03 07:25:53;;;;;;;37.70;22.73;;;;;;;8.16;73.58;101276.06;4997830;28;20049;-77
2023/03/03 07:28:19;;;;;;;31.73;20.65;;;;;;;8.21;73.78;101279.25;5004713;28;20084;-78
2023/03/03 07:30:53;;;;;;;38.08;25.30;;;;;;;8.20;74.06;101262.50;4968819;28;20049;-80
2023/03/03 07:33:35;;;;;;;37.22;24.85;;;;;;;8.00;74.02;101228.66;4984377;28;20208;-77
2023/03/03 07:36:05;;;;;;;33.42;23.58;;;;;;;7.65;73.61;101155.25;4999943;28;20074;-79
2023/03/03 07:38:57;;;;;;;37.90;23.52;;;;;;;8.33;72.51;101251.94;4977710;28;20045;-79
2023/03/03 07:41:35;;;;;;;37.10;23.77;;;;;;;8.50;72.96;101279.91;4985286;28;20471;-77
2023/03/03 07:44:12;;;;;;;42.85;25.42;;;;;;;8.67;72.08;101271.63;5014818;28;20458;-78
2023/03/03 07:46:50;;;;;;;39.55;24.42;;;;;;;8.46;71.90;101236.09;4989258;28;20380;-77
2023/03/03 07:49:31;;;;;;;36.30;23.48;;;;;;;8.69;71.54;101272.38;4994845;28;20060;-75
2023/03/03 07:51:59;;;;;;;37.55;24.95;;;;;;;8.66;72.44;101264.63;4962387;28;20358;-76
2023/03/03 07:54:37;;;;;;;38.30;25.02;;;;;;;8.81;71.35;101272.44;4989738;28;20057;-77
2023/03/03 07:57:25;;;;;;;35.63;23.45;;;;;;;8.90;71.08;101282.41;4999389;28;20185;-78
2023/03/03 08:00:07;;;;;;;44.25;25.55;;;;;;;8.88;70.56;101273.72;5003485;28;20463;-76
2023/03/03 08:02:54;;;;;;;40.30;24.35;;;;;;;8.85;70.72;101271.28;4996210;28;20118;-78
2023/03/03 08:05:38;;;;;;;47.38;26.17;;;;;;;8.94;71.33;101283.88;4990942;28;20045;-77
2023/03/03 08:08:35;;;;;;;36.83;22.75;;;;;;;9.03;70.40;101283.22;4961052;28;20407;-78
2023/03/03 08:11:10;;;;;;;41.47;25.25;;;;;;;9.09;69.75;101282.78;4993714;28;20455;-77
2023/03/03 08:13:41;;;;;;;38.10;22.63;;;;;;;9.14;69.64;101301.00;5014299;28;20342;-76
2023/03/03 08:16:09;;;;;;;37.45;25.75;;;;;;;8.77;69.81;101240.91;4993863;28;20627;-77
2023/03/03 08:18:46;;;;;;;34.63;24.52;;;;;;;9.19;70.29;101302.34;4994240;28;20049;-77
2023/03/03 08:21:23;;;;;;;46.40;28.52;;;;;;;8.88;68.66;101236.66;5017886;28;20398;-77
2023/03/03 08:23:56;;;;;;;37.08;27.23;;;;;;;9.04;69.46;101278.78;5002732;28;20314;-76
2023/03/03 08:26:30;;;;;;;36.65;23.23;;;;;;;9.16;69.62;101297.28;4977545;28;20102;-78
2023/03/03 08:28:57;;;;;;;42.38;26.48;;;;;;;9.06;69.65;101279.53;4996383;28;20045;-78
2023/03/03 08:31:27;;;;;;;41.80;27.20;;;;;;;9.05;69.76;101268.06;4991291;28;20064;-79
2023/03/03 08:34:07;;;;;;;44.22;26.77;;;;;;;9.26;69.76;101304.56;4989547;28;20223;-77
2023/03/03 08:36:37;;;;;;;44.85;27.13;;;;;;;9.44;69.41;101310.31;4970695;28;20619;-78
2023/03/03 08:39:08;;;;;;;42.30;27.88;;;;;;;9.52;68.67;101315.94;4972266;28;20302;-79
2023/03/03 08:41:42;;;;;;;57.72;28.30;;;;;;;9.53;68.50;101307.84;4983145;28;20595;-77
2023/03/03 08:44:14;;;;;;;41.20;26.55;;;;;;;9.50;69.02;101313.38;4998619;28;20313;-77
2023/03/03 08:46:42;;;;;;;43.85;27.58;;;;;;;9.40;68.42;101301.75;4981984;28;20541;-77
2023/03/03 08:49:12;;;;;;;43.72;28.63;;;;;;;9.44;67.65;101297.06;4999447;28;20127;-77
2023/03/03 08:51:39;;;;;;;44.08;27.75;;;;;;;9.09;67.12;101240.41;4997212;28;20080;-78
2023/03/03 08:54:09;;;;;;;40.65;26.60;;;;;;;9.44;67.65;101302.38;4996744;28;20050;-76
2023/03/03 08:56:41;;;;;;;42.63;29.15;;;;;;;9.54;67.36;101322.81;4981255;28;20533;-79
2023/03/03 08:59:10;;;;;;;;;;;;;;;9.56;67.77;101328.84;4992788;28;20748;-78
2023/03/03 09:01:42;;;;;;;42.30;26.35;;;;;;;9.67;67.28;101327.22;4989102;28;20015;-80
2023/03/03 09:04:14;;;;;;;34.28;23.02;;;;;;;9.68;68.03;101327.06;4983148;28;20084;-79
2023/03/03 09:06:44;;;;;;;43.58;28.58;;;;;;;9.77;68.12;101336.19;4978825;28;20506;-78
2023/03/03 09:09:14;;;;;;;44.88;27.58;;;;;;;9.71;66.83;101332.19;4986036;28;20048;-79
2023/03/03 09:11:46;;;;;;;44.63;27.48;;;;;;;9.66;67.47;101320.19;4994377;28;20159;-79
2023/03/03 09:14:16;;;;;;;48.40;28.10;;;;;;;9.69;68.12;101334.09;4989870;28;20053;-77
2023/03/03 09:16:53;;;;;;;51.53;33.07;;;;;;;9.79;68.08;101331.59;4993471;28;20073;-77
2023/03/03 09:19:23;;;;;;;48.28;29.60;;;;;;;9.43;67.41;101267.09;4986816;28;20057;-78
2023/03/03 09:21:53;;;;;;;47.08;32.00;;;;;;;9.78;67.47;101329.91;4991886;28;20291;-77
2023/03/03 09:24:29;;;;;;;47.75;28.23;;;;;;;9.82;68.35;101336.69;4990852;28;20055;-78
2023/03/03 09:26:57;;;;;;;48.92;30.25;;;;;;;9.82;67.51;101334.03;4991996;28;20072;-77
2023/03/03 09:29:29;;;;;;;49.10;29.95;;;;;;;9.59;67.48;101283.56;5000280;28;20569;-77
2023/03/03 09:31:59;;;;;;;49.42;30.20;;;;;;;9.91;67.30;101333.34;4992212;28;20095;-77
2023/03/03 09:34:35;;;;;;;48.13;32.03;;;;;;;9.86;68.17;101324.06;5005104;28;20053;-77
2023/03/03 09:37:39;;;;;;;57.63;35.47;;;;;;;10.05;67.14;101322.56;4992411;28;20404;-77
2023/03/03 09:40:52;;;;;;;57.92;36.88;;;;;;;9.94;66.31;101285.38;5013213;28;20049;-78
2023/03/03 09:43:27;;;;;;;47.33;32.38;;;;;;;10.40;66.07;101334.97;4994192;28;20064;-76
2023/03/03 09:46:13;;;;;;;57.03;36.17;;;;;;;10.31;66.42;101338.31;4994950;28;20056;-79
2023/03/03 09:48:56;;;;;;;56.60;37.03;;;;;;;10.47;65.40;101336.19;4997054;28;20053;-77
2023/03/03 09:52:12;;;;;;;61.03;38.50;;;;;;;10.42;65.40;101321.59;4983456;28;20469;-79
2023/03/03 09:55:12;;;;;;;61.83;40.00;;;;;;;10.33;65.44;101328.44;4946250;28;20468;-77
2023/03/03 09:58:17;;;;;;;63.88;38.92;;;;;;;10.33;65.99;101333.75;4968381;28;20052;-78
2023/03/03 10:01:26;;;;;;;55.72;34.80;;;;;;;10.36;66.03;101306.97;4957626;28;20753;-78
2023/03/03 10:04:28;;;;;;;55.28;37.78;;;;;;;10.52;65.94;101313.78;4949212;28;20256;-77
2023/03/03 10:07:28;;;;;;;62.28;39.83;;;;;;;10.52;65.73;101300.50;4974937;28;20049;-78
2023/03/03 10:10:23;;;;;;;61.58;38.10;;;;;;;9.82;65.64;101174.91;5000454;28;20132;-77
2023/03/03 10:12:56;;;;;;;65.85;45.05;;;;;;;10.46;64.81;101254.88;5003254;28;20049;-78
2023/03/03 10:15:42;;;;;;;69.65;44.00;;;;;;;9.79;64.67;101124.78;4991337;28;21843;-79
2023/03/03 10:18:24;;;;;;;66.97;41.97;;;;;;;11.29;64.96;101328.00;5008147;28;20045;-77
2023/03/03 10:21:02;;;;;;;63.28;39.58;;;;;;;10.12;63.67;101117.78;5002536;28;20080;-77
2023/03/03 10:23:59;;;;;;;61.45;40.28;;;;;;;11.23;63.28;101275.31;4961163;28;20058;-75
2023/03/03 10:27:07;;;;;;;68.55;41.40;;;;;;;11.60;62.18;101320.19;4956977;28;20267;-78
2023/03/03 10:29:55;;;;;;;63.85;40.28;;;;;;;11.65;62.41;101307.38;4876429;29;20130;-77
2023/03/03 10:32:48;;;;;;;62.05;39.35;;;;;;;11.81;62.37;101324.72;4989841;28;20062;-77
2023/03/03 10:35:43;;;;;;;60.88;38.58;;;;;;;11.93;61.98;101315.75;4978217;28;20730;-77
2023/03/03 10:38:40;;;;;;;67.10;38.92;;;;;;;12.07;61.53;101323.44;4939562;28;20317;-77
2023/03/03 10:41:37;;;;;;;55.83;34.72;;;;;;;11.83;60.85;101264.25;4951932;28;20166;-77
2023/03/03 10:44:40;;;;;;;54.97;35.45;;;;;;;12.30;60.90;101323.31;4958974;28;20069;-77
2023/03/03 10:47:41;;;;;;;56.33;35.55;;;;;;;12.46;60.94;101315.69;4922299;28;20701;-76
2023/03/03 10:50:33;;;;;;;52.50;32.67;;;;;;;12.95;59.43;101327.44;4986036;28;20045;-78
2023/03/03 10:53:22;;;;;;;50.70;34.42;;;;;;;12.80;56.57;101326.13;4969623;28;20046;-78
2023/03/03 10:56:24;;;;;;;51.08;33.65;;;;;;;12.74;57.20;101310.66;4985009;28;20133;-76
2023/03/03 10:59:09;;;;;;;47.50;30.92;;;;;;;12.64;58.81;101277.81;4951029;28;20727;-77
2023/03/03 11:01:52;;;;;;;46.40;30.50;;;;;;;12.80;58.16;101289.66;4942978;28;20057;-78
2023/03/03 11:04:47;;;;;;;45.65;29.25;;;;;;;13.07;55.88;101328.19;4959624;28;20065;-79
2023/03/03 11:07:44;;;;;;;51.53;32.13;;;;;;;12.95;56.23;101332.75;4972036;28;20139;-79
2023/03/03 11:10:37;;;;;;;45.87;30.47;;;;;;;12.94;57.94;101323.09;4996312;28;20072;-79
2023/03/03 11:13:34;;;;;;;46.78;31.88;;;;;;;12.60;56.65;101251.44;4941748;28;20591;-75
2023/03/03 11:16:06;;;;;;;49.03;31.30;;;;;;;13.00;56.71;101311.03;4988293;28;20045;-77
2023/03/03 11:19:26;;;;;;;44.28;29.95;;;;;;;12.85;57.99;101297.25;4978778;28;20057;-78
2023/03/03 11:22:23;;;;;;;42.20;25.73;;;;;;;13.28;56.63;101309.50;4958296;28;20073;-78
2023/03/03 11:25:02;;;;;;;42.88;28.30;;;;;;;13.00;55.97;101260.41;4994582;28;20052;-78
2023/03/03 11:27:47;;;;;;;43.78;27.92;;;;;;;13.49;55.82;101300.53;4995463;28;20411;-77
2023/03/03 11:30:28;;;;;;;40.92;27.23;;;;;;;13.48;55.37;101298.84;4985200;28;20339;-78
2023/03/03 11:33:03;;;;;;;40.35;26.10;;;;;;;13.48;56.36;101296.19;4976425;28;20364;-78
2023/03/03 11:35:45;;;;;;;43.17;28.92;;;;;;;13.44;54.12;101299.09;4964874;28;20052;-78
2023/03/03 11:38:50;;;;;;;44.15;28.90;;;;;;;13.20;55.16;101295.94;4968646;28;20490;-76
2023/03/03 11:42:01;;;;;;;41.47;26.77;;;;;;;13.22;56.36;101294.81;5000922;28;20441;-76
2023/03/03 11:44:45;;;;;;;36.80;23.65;;;;;;;13.19;56.72;101286.28;4971479;28;20129;-79
2023/03/03 11:47:28;;;;;;;32.42;21.45;;;;;;;12.52;53.85;101187.31;5007743;28;20102;-77
2023/03/03 11:50:01;;;;;;;34.97;18.92;;;;;;;12.88;53.84;101258.81;5003445;28;20139;-79
2023/03/03 11:52:46;;;;;;;35.90;23.98;;;;;;;12.56;55.07;101222.53;4964784;28;20536;-77
2023/03/03 11:55:24;;;;;;;33.15;23.92;;;;;;;12.79;55.21;101265.78;4978642;28;20056;-78
2023/03/03 11:57:59;;;;;;;34.58;22.48;;;;;;;12.90;56.70;101263.03;4979438;28;20115;-78
2023/03/03 12:00:53;;;;;;;34.08;21.48;;;;;;;12.96;57.19;101281.16;4957391;28;20321;-76
2023/03/03 12:03:49;;;;;;;33.42;21.52;;;;;;;12.79;56.63;101276.44;4973505;28;20069;-79
2023/03/03 12:06:32;;;;;;;38.90;24.25;;;;;;;12.77;56.00;101262.44;4938501;28;20345;-80